sensor_id;sensor_type;location;lat;lon;timestamp;pressure;altitude;pressure_sealevel;temperature;humidity
24486;BME280;13449;49.374;8.584;2024-01-15T00:00:29;99559.88;;;-2.58;100.00
24486;BME280;13449;49.374;8.584;2024-01-15T00:02:55;99552.09;;;-2.56;100.00
24486;BME280;13449;49.374;8.584;2024-01-15T00:05:23;99548.63;;;-2.55;100.00
24486;BME280;13449;49.374;8.584;2024-01-15T00:07:50;99546.94;;;-2.56;100.00
24486;BME280;13449;49.374;8.584;2024-01-15T00:10:16;99557.25;;;-2.56;100.00
24486;BME280;13449;49.374;8.584;2024-01-15T00:12:43;99550.34;;;-2.56;100.00
24486;BME280;13449;49.374;8.584;2024-01-15T00:15:14;99556.19;;;-2.51;100.00
24486;BME280;13449;49.374;8.584;2024-01-15T00:17:41;99550.22;;;-2.53;100.00
24486;BME280;13449;49.374;8.584;2024-01-15T00:20:08;99546.81;;;-2.53;100.00
24486;BME280;13449;49.374;8.584;2024-01-15T00:22:34;99544.25;;;-2.53;100.00
24486;BME280;13449;49.374;8.584;2024-01-15T00:25:04;99527.16;;;-2.56;100.00
24486;BME280;13449;49.374;8.584;2024-01-15T00:27:34;99535.63;;;-2.52;100.00
24486;BME280;13449;49.374;8.584;2024-01-15T00:30:03;99530.50;;;-2.54;100.00
24486;BME280;13449;49.374;8.584;2024-01-15T00:32:31;99527.91;;;-2.52;100.00
24486;BME280;13449;49.374;8.584;2024-01-15T00:34:57;99527.00;;;-2.51;100.00
24486;BME280;13449;49.374;8.584;2024-01-15T00:37:24;99520.94;;;-2.50;100.00
24486;BME280;13449;49.374;8.584;2024-01-15T00:39:51;99521.03;;;-2.53;100.00
24486;BME280;13449;49.374;8.584;2024-01-15T00:42:17;99519.19;;;-2.50;100.00
24486;BME280;13449;49.374;8.584;2024-01-15T00:44:44;99520.81;;;-2.47;100.00
24486;BME280;13449;49.374;8.584;2024-01-15T00:47:10;99515.66;;;-2.47;100.00
24486;BME280;13449;49.374;8.584;2024-01-15T00:49:39;99509.59;;;-2.46;100.00
24486;BME280;13449;49.374;8.584;2024-01-15T00:52:06;99511.34;;;-2.47;100.00
24486;BME280;13449;49.374;8.584;2024-01-15T00:54:35;99515.66;;;-2.47;100.00
24486;BME280;13449;49.374;8.584;2024-01-15T00:57:02;99512.19;;;-2.46;100.00
24486;BME280;13449;49.374;8.584;2024-01-15T00:59:28;99512.19;;;-2.46;100.00
24486;BME280;13449;49.374;8.584;2024-01-15T01:01:55;99512.19;;;-2.46;100.00
24486;BME280;13449;49.374;8.584;2024-01-15T01:04:21;99496.72;;;-2.46;100.00
24486;BME280;13449;49.374;8.584;2024-01-15T01:06:48;99507.88;;;-2.46;100.00
24486;BME280;13449;49.374;8.584;2024-01-15T01:09:15;99506.13;;;-2.45;100.00
24486;BME280;13449;49.374;8.584;2024-01-15T01:11:41;99515.53;;;-2.44;100.00
24486;BME280;13449;49.374;8.584;2024-01-15T01:14:08;99512.06;;;-2.43;100.00
24486;BME280;13449;49.374;8.584;2024-01-15T01:16:39;99511.16;;;-2.42;100.00
24486;BME280;13449;49.374;8.584;2024-01-15T01:19:10;99500.06;;;-2.44;100.00
24486;BME280;13449;49.374;8.584;2024-01-15T01:21:42;99497.47;;;-2.44;100.00
24486;BME280;13449;49.374;8.584;2024-01-15T01:24:11;99498.25;;;-2.42;100.00
24486;BME280;13449;49.374;8.584;2024-01-15T01:26:38;99500.72;;;-2.39;100.00
24486;BME280;13449;49.374;8.584;2024-01-15T01:29:06;99499.94;;;-2.41;100.00
24486;BME280;13449;49.374;8.584;2024-01-15T01:31:33;99499.88;;;-2.39;100.00
24486;BME280;13449;49.374;8.584;2024-01-15T01:33:59;99503.28;;;-2.39;100.00
24486;BME280;13449;49.374;8.584;2024-01-15T01:36:26;99503.28;;;-2.39;100.00
24486;BME280;13449;49.374;8.584;2024-01-15T01:38:53;99517.84;;;-2.36;100.00
24486;BME280;13449;49.374;8.584;2024-01-15T01:41:19;99515.19;;;-2.35;100.00
24486;BME280;13449;49.374;8.584;2024-01-15T01:43:48;99512.50;;;-2.32;100.00
24486;BME280;13449;49.374;8.584;2024-01-15T01:46:15;99513.38;;;-2.33;100.00
24486;BME280;13449;49.374;8.584;2024-01-15T01:48:44;99515.06;;;-2.32;100.00
24486;BME280;13449;49.374;8.584;2024-01-15T01:51:17;99507.25;;;-2.30;100.00
24486;BME280;13449;49.374;8.584;2024-01-15T01:53:44;99511.47;;;-2.28;100.00
24486;BME280;13449;49.374;8.584;2024-01-15T01:56:12;99508.94;;;-2.29;100.00
24486;BME280;13449;49.374;8.584;2024-01-15T01:58:40;99501.97;;;-2.27;100.00
24486;BME280;13449;49.374;8.584;2024-01-15T02:01:07;99497.59;;;-2.25;100.00
24486;BME280;13449;49.374;8.584;2024-01-15T02:03:34;99492.50;;;-2.27;100.00
24486;BME280;13449;49.374;8.584;2024-01-15T02:06:01;99494.19;;;-2.26;100.00
24486;BME280;13449;49.374;8.584;2024-01-15T02:08:30;99491.59;;;-2.26;100.00
24486;BME280;13449;49.374;8.584;2024-01-15T02:10:56;99483.84;;;-2.26;100.00
24486;BME280;13449;49.374;8.584;2024-01-15T02:13:25;99483.72;;;-2.23;100.00
24486;BME280;13449;49.374;8.584;2024-01-15T02:15:52;99484.56;;;-2.22;100.00
24486;BME280;13449;49.374;8.584;2024-01-15T02:18:23;99489.78;;;-2.24;100.00
24486;BME280;13449;49.374;8.584;2024-01-15T02:20:53;99485.53;;;-2.25;100.00
24486;BME280;13449;49.374;8.584;2024-01-15T02:23:21;99488.19;;;-2.26;100.00
24486;BME280;13449;49.374;8.584;2024-01-15T02:25:48;99485.53;;;-2.25;100.00
24486;BME280;13449;49.374;8.584;2024-01-15T02:28:16;99480.44;;;-2.26;100.00
24486;BME280;13449;49.374;8.584;2024-01-15T02:30:43;99472.78;;;-2.28;100.00
24486;BME280;13449;49.374;8.584;2024-01-15T02:33:13;99483.84;;;-2.26;100.00
24486;BME280;13449;49.374;8.584;2024-01-15T02:35:42;99480.44;;;-2.26;100.00
24486;BME280;13449;49.374;8.584;2024-01-15T02:38:09;99485.53;;;-2.25;100.00
24486;BME280;13449;49.374;8.584;2024-01-15T02:40:38;99482.19;;;-2.27;100.00
24486;BME280;13449;49.374;8.584;2024-01-15T02:43:04;99483.03;;;-2.26;100.00
24486;BME280;13449;49.374;8.584;2024-01-15T02:45:31;99472.78;;;-2.28;100.00
24486;BME280;13449;49.374;8.584;2024-01-15T02:47:58;99472.78;;;-2.28;100.00
24486;BME280;13449;49.374;8.584;2024-01-15T02:50:24;99472.84;;;-2.29;100.00
24486;BME280;13449;49.374;8.584;2024-01-15T02:52:53;99466.00;;;-2.30;100.00
24486;BME280;13449;49.374;8.584;2024-01-15T02:55:20;99471.16;;;-2.30;100.00
24486;BME280;13449;49.374;8.584;2024-01-15T02:57:46;99465.16;;;-2.31;100.00
24486;BME280;13449;49.374;8.584;2024-01-15T03:00:16;99459.16;;;-2.31;100.00
24486;BME280;13449;49.374;8.584;2024-01-15T03:02:44;99454.84;;;-2.31;100.00
24486;BME280;13449;49.374;8.584;2024-01-15T03:05:14;99441.09;;;-2.31;100.00
24486;BME280;13449;49.374;8.584;2024-01-15T03:07:41;99424.78;;;-2.32;100.00
24486;BME280;13449;49.374;8.584;2024-01-15T03:10:10;99426.47;;;-2.31;100.00
24486;BME280;13449;49.374;8.584;2024-01-15T03:12:36;99460.84;;;-2.30;100.00
24486;BME280;13449;49.374;8.584;2024-01-15T03:15:03;99486.44;;;-2.26;100.00
24486;BME280;13449;49.374;8.584;2024-01-15T03:17:33;99491.66;;;-2.27;100.00
24486;BME280;13449;49.374;8.584;2024-01-15T03:20:00;99479.53;;;-2.25;100.00
24486;BME280;13449;49.374;8.584;2024-01-15T03:22:29;99478.69;;;-2.26;100.00
24486;BME280;13449;49.374;8.584;2024-01-15T03:24:55;99485.59;;;-2.26;100.00
24486;BME280;13449;49.374;8.584;2024-01-15T03:27:22;99479.66;;;-2.28;100.00
24486;BME280;13449;49.374;8.584;2024-01-15T03:29:48;99486.50;;;-2.27;100.00
24486;BME280;13449;49.374;8.584;2024-01-15T03:32:15;99480.38;;;-2.25;100.00
24486;BME280;13449;49.374;8.584;2024-01-15T03:34:43;99476.00;;;-2.23;100.00
24486;BME280;13449;49.374;8.584;2024-01-15T03:37:09;99476.91;;;-2.24;100.00
24486;BME280;13449;49.374;8.584;2024-01-15T03:39:39;99464.91;;;-2.25;100.00
24486;BME280;13449;49.374;8.584;2024-01-15T03:42:06;99458.06;;;-2.26;100.00
24486;BME280;13449;49.374;8.584;2024-01-15T03:44:35;99460.66;;;-2.26;100.00
24486;BME280;13449;49.374;8.584;2024-01-15T03:47:01;99466.56;;;-2.24;100.00
24486;BME280;13449;49.374;8.584;2024-01-15T03:49:28;99469.06;;;-2.21;100.00
24486;BME280;13449;49.374;8.584;2024-01-15T03:52:15;99457.03;;;-2.22;100.00
24486;BME280;13449;49.374;8.584;2024-01-15T03:54:42;99457.88;;;-2.21;100.00
24486;BME280;13449;49.374;8.584;2024-01-15T03:57:08;99450.19;;;-2.23;100.00
24486;BME280;13449;49.374;8.584;2024-01-15T03:59:35;99447.63;;;-2.23;100.00
24486;BME280;13449;49.374;8.584;2024-01-15T04:02:01;99454.44;;;-2.22;100.00
24486;BME280;13449;49.374;8.584;2024-01-15T04:04:28;99459.59;;;-2.22;100.00
24486;BME280;13449;49.374;8.584;2024-01-15T04:06:54;99444.25;;;-2.25;100.00
24486;BME280;13449;49.374;8.584;2024-01-15T04:09:21;99439.03;;;-2.23;100.00
24486;BME280;13449;49.374;8.584;2024-01-15T04:11:48;99435.63;;;-2.24;100.00
24486;BME280;13449;49.374;8.584;2024-01-15T04:14:14;99444.13;;;-2.22;100.00
24486;BME280;13449;49.374;8.584;2024-01-15T04:16:41;99449.28;;;-2.22;100.00
24486;BME280;13449;49.374;8.584;2024-01-15T04:19:07;99454.44;;;-2.22;100.00
24486;BME280;13449;49.374;8.584;2024-01-15T04:21:34;99439.78;;;-2.20;100.00
24486;BME280;13449;49.374;8.584;2024-01-15T04:24:03;99440.69;;;-2.21;100.00
24486;BME280;13449;49.374;8.584;2024-01-15T04:26:32;99431.31;;;-2.23;100.00
24486;BME280;13449;49.374;8.584;2024-01-15T04:29:02;99416.66;;;-2.23;100.00
24486;BME280;13449;49.374;8.584;2024-01-15T04:31:31;99409.81;;;-2.24;100.00
24486;BME280;13449;49.374;8.584;2024-01-15T04:33:57;99416.66;;;-2.23;100.00
24486;BME280;13449;49.374;8.584;2024-01-15T04:36:24;99410.66;;;-2.23;100.00
24486;BME280;13449;49.374;8.584;2024-01-15T04:38:50;99412.41;;;-2.24;100.00
24486;BME280;13449;49.374;8.584;2024-01-15T04:41:17;99421.81;;;-2.23;100.00
24486;BME280;13449;49.374;8.584;2024-01-15T04:43:44;99415.88;;;-2.25;100.00
24486;BME280;13449;49.374;8.584;2024-01-15T04:46:10;99425.31;;;-2.24;100.00
24486;BME280;13449;49.374;8.584;2024-01-15T04:48:37;99429.63;;;-2.24;100.00
24486;BME280;13449;49.374;8.584;2024-01-15T04:51:05;99422.63;;;-2.21;100.00
24486;BME280;13449;49.374;8.584;2024-01-15T04:53:33;99421.72;;;-2.20;100.00
24486;BME280;13449;49.374;8.584;2024-01-15T04:56:00;99425.19;;;-2.21;100.00
24486;BME280;13449;49.374;8.584;2024-01-15T04:58:26;99430.38;;;-2.21;100.00
24486;BME280;13449;49.374;8.584;2024-01-15T05:00:54;99410.56;;;-2.20;100.00
24486;BME280;13449;49.374;8.584;2024-01-15T05:03:21;99412.16;;;-2.18;100.00
24486;BME280;13449;49.374;8.584;2024-01-15T05:05:48;99409.53;;;-2.16;100.00
24486;BME280;13449;49.374;8.584;2024-01-15T05:08:14;99392.31;;;-2.16;100.00
24486;BME280;13449;49.374;8.584;2024-01-15T05:10:44;99388.81;;;-2.15;100.00
24486;BME280;13449;49.374;8.584;2024-01-15T05:13:13;99382.81;;;-2.15;100.00
24486;BME280;13449;49.374;8.584;2024-01-15T05:15:40;99376.81;;;-2.16;100.00
24486;BME280;13449;49.374;8.584;2024-01-15T05:18:07;99385.34;;;-2.14;100.00
24486;BME280;13449;49.374;8.584;2024-01-15T05:20:34;99385.47;;;-2.17;100.00
24486;BME280;13449;49.374;8.584;2024-01-15T05:23:01;99390.44;;;-2.12;100.00
24486;BME280;13449;49.374;8.584;2024-01-15T05:25:27;99391.25;;;-2.12;100.00
24486;BME280;13449;49.374;8.584;2024-01-15T05:27:54;99389.47;;;-2.09;100.00
24486;BME280;13449;49.374;8.584;2024-01-15T05:30:22;99384.38;;;-2.11;100.00
24486;BME280;13449;49.374;8.584;2024-01-15T05:32:49;99378.38;;;-2.12;100.00
24486;BME280;13449;49.374;8.584;2024-01-15T05:35:20;99374.88;;;-2.11;100.00
24486;BME280;13449;49.374;8.584;2024-01-15T05:37:47;99374.88;;;-2.11;100.00
24486;BME280;13449;49.374;8.584;2024-01-15T05:40:13;99379.91;;;-2.07;100.00
24486;BME280;13449;49.374;8.584;2024-01-15T05:42:41;99374.88;;;-2.11;100.00
24486;BME280;13449;49.374;8.584;2024-01-15T05:45:08;99368.66;;;-2.05;100.00
24486;BME280;13449;49.374;8.584;2024-01-15T05:47:36;99366.09;;;-2.06;100.00
24486;BME280;13449;49.374;8.584;2024-01-15T05:50:03;99370.34;;;-2.05;100.00
24486;BME280;13449;49.374;8.584;2024-01-15T05:52:33;99369.47;;;-2.04;100.00
24486;BME280;13449;49.374;8.584;2024-01-15T05:55:04;99371.16;;;-2.03;100.00
24486;BME280;13449;49.374;8.584;2024-01-15T05:57:31;99368.66;;;-2.05;100.00
24486;BME280;13449;49.374;8.584;2024-01-15T05:59:58;99373.84;;;-2.06;100.00
24486;BME280;13449;49.374;8.584;2024-01-15T06:02:26;99378.00;;;-2.02;100.00
24486;BME280;13449;49.374;8.584;2024-01-15T06:04:56;99376.25;;;-2.02;100.00
24486;BME280;13449;49.374;8.584;2024-01-15T06:07:22;99366.00;;;-2.03;100.00
24486;BME280;13449;49.374;8.584;2024-01-15T06:09:49;99372.69;;;-1.99;100.00
24486;BME280;13449;49.374;8.584;2024-01-15T06:12:16;99373.53;;;-1.99;100.00
24486;BME280;13449;49.374;8.584;2024-01-15T06:14:42;99376.88;;;-1.97;100.00
24486;BME280;13449;49.374;8.584;2024-01-15T06:17:09;99372.41;;;-1.93;100.00
24486;BME280;13449;49.374;8.584;2024-01-15T06:19:36;99367.25;;;-1.93;100.00
24486;BME280;13449;49.374;8.584;2024-01-15T06:22:05;99371.50;;;-1.92;100.00
24486;BME280;13449;49.374;8.584;2024-01-15T06:24:31;99364.59;;;-1.92;100.00
24486;BME280;13449;49.374;8.584;2024-01-15T06:27:01;99365.38;;;-1.90;100.00
24486;BME280;13449;49.374;8.584;2024-01-15T06:29:27;99364.44;;;-1.87;100.00
24486;BME280;13449;49.374;8.584;2024-01-15T06:31:54;99373.84;;;-1.86;100.00
24486;BME280;13449;49.374;8.584;2024-01-15T06:34:21;99381.44;;;-1.83;100.00
24486;BME280;13449;49.374;8.584;2024-01-15T06:36:47;99381.44;;;-1.83;100.00
24486;BME280;13449;49.374;8.584;2024-01-15T06:39:14;99383.00;;;-1.79;100.00
24486;BME280;13449;49.374;8.584;2024-01-15T06:41:42;99380.28;;;-1.76;100.00
24486;BME280;13449;49.374;8.584;2024-01-15T06:44:12;99377.50;;;-1.71;100.00
24486;BME280;13449;49.374;8.584;2024-01-15T06:46:43;99387.75;;;-1.70;100.00
24486;BME280;13449;49.374;8.584;2024-01-15T06:49:10;99378.19;;;-1.68;100.00
24486;BME280;13449;49.374;8.584;2024-01-15T06:51:37;99376.38;;;-1.66;100.00
24486;BME280;13449;49.374;8.584;2024-01-15T06:54:04;99383.84;;;-1.60;100.00
24486;BME280;13449;49.374;8.584;2024-01-15T06:56:33;99373.41;;;-1.57;100.00
24486;BME280;13449;49.374;8.584;2024-01-15T06:59:02;99379.34;;;-1.55;100.00
24486;BME280;13449;49.374;8.584;2024-01-15T07:01:29;99378.16;;;-1.47;100.00
24486;BME280;13449;49.374;8.584;2024-01-15T07:03:55;99379.06;;;-1.48;100.00
24486;BME280;13449;49.374;8.584;2024-01-15T07:06:22;99375.56;;;-1.47;100.00
24486;BME280;13449;49.374;8.584;2024-01-15T07:08:48;99376.41;;;-1.47;100.00
24486;BME280;13449;49.374;8.584;2024-01-15T07:11:16;99372.06;;;-1.46;100.00
24486;BME280;13449;49.374;8.584;2024-01-15T07:13:42;99364.31;;;-1.46;100.00
24486;BME280;13449;49.374;8.584;2024-01-15T07:16:09;99365.31;;;-1.49;100.00
24486;BME280;13449;49.374;8.584;2024-01-15T07:18:36;99367.88;;;-1.49;100.00
24486;BME280;13449;49.374;8.584;2024-01-15T07:21:04;99377.38;;;-1.49;100.00
24486;BME280;13449;49.374;8.584;2024-01-15T07:23:31;99379.13;;;-1.50;100.00
24486;BME280;13449;49.374;8.584;2024-01-15T07:25:57;99373.13;;;-1.51;100.00
24486;BME280;13449;49.374;8.584;2024-01-15T07:28:24;99377.38;;;-1.49;100.00
24486;BME280;13449;49.374;8.584;2024-01-15T07:30:50;99374.81;;;-1.49;100.00
24486;BME280;13449;49.374;8.584;2024-01-15T07:33:18;99373.06;;;-1.49;100.00
24486;BME280;13449;49.374;8.584;2024-01-15T07:35:45;99368.72;;;-1.48;100.00
24486;BME280;13449;49.374;8.584;2024-01-15T07:38:13;99375.56;;;-1.47;100.00
24486;BME280;13449;49.374;8.584;2024-01-15T07:40:39;99373.91;;;-1.48;100.00
24486;BME280;13449;49.374;8.584;2024-01-15T07:43:06;99373.91;;;-1.48;100.00
24486;BME280;13449;49.374;8.584;2024-01-15T07:45:32;99366.91;;;-1.46;100.00
24486;BME280;13449;49.374;8.584;2024-01-15T07:47:59;99377.25;;;-1.46;100.00
24486;BME280;13449;49.374;8.584;2024-01-15T07:50:25;99365.09;;;-1.44;100.00
24486;BME280;13449;49.374;8.584;2024-01-15T07:52:54;99359.94;;;-1.44;100.00
24486;BME280;13449;49.374;8.584;2024-01-15T07:55:21;99361.75;;;-1.46;100.00
24486;BME280;13449;49.374;8.584;2024-01-15T07:57:50;99360.91;;;-1.47;100.00
24486;BME280;13449;49.374;8.584;2024-01-15T08:00:31;99359.94;;;-1.44;100.00
24486;BME280;13449;49.374;8.584;2024-01-15T08:02:58;99363.41;;;-1.45;100.00
24486;BME280;13449;49.374;8.584;2024-01-15T08:05:25;99354.75;;;-1.44;100.00
24486;BME280;13449;49.374;8.584;2024-01-15T08:07:54;99360.66;;;-1.41;100.00
24486;BME280;13449;49.374;8.584;2024-01-15T08:10:24;99364.00;;;-1.39;100.00
24486;BME280;13449;49.374;8.584;2024-01-15T08:12:51;99358.63;;;-1.34;100.00
24486;BME280;13449;49.374;8.584;2024-01-15T08:15:17;99356.66;;;-1.29;100.00
24486;BME280;13449;49.374;8.584;2024-01-15T08:17:44;99361.69;;;-1.26;100.00
24486;BME280;13449;49.374;8.584;2024-01-15T08:20:10;99365.88;;;-1.24;100.00
24486;BME280;13449;49.374;8.584;2024-01-15T08:22:38;99357.97;;;-1.21;100.00
24486;BME280;13449;49.374;8.584;2024-01-15T08:25:08;99355.19;;;-1.16;100.00
24486;BME280;13449;49.374;8.584;2024-01-15T08:27:35;99360.19;;;-1.13;100.00
24486;BME280;13449;49.374;8.584;2024-01-15T08:30:02;99352.31;;;-1.10;100.00
24486;BME280;13449;49.374;8.584;2024-01-15T08:32:33;99344.44;;;-1.07;100.00
24486;BME280;13449;49.374;8.584;2024-01-15T08:35:02;99342.59;;;-1.05;100.00
24486;BME280;13449;49.374;8.584;2024-01-15T08:37:30;99346.63;;;-0.99;100.00
24486;BME280;13449;49.374;8.584;2024-01-15T08:39:57;99345.66;;;-0.97;100.00
24486;BME280;13449;49.374;8.584;2024-01-15T08:42:23;99340.34;;;-0.94;100.00
24486;BME280;13449;49.374;8.584;2024-01-15T08:44:50;99343.63;;;-0.90;100.00
24486;BME280;13449;49.374;8.584;2024-01-15T08:47:17;99341.72;;;-0.86;100.00
24486;BME280;13449;49.374;8.584;2024-01-15T08:49:46;99334.56;;;-0.81;100.00
24486;BME280;13449;49.374;8.584;2024-01-15T08:52:13;99332.75;;;-0.79;100.00
24486;BME280;13449;49.374;8.584;2024-01-15T08:54:40;99341.16;;;-0.74;100.00
24486;BME280;13449;49.374;8.584;2024-01-15T08:57:07;99341.66;;;-0.68;100.00
24486;BME280;13449;49.374;8.584;2024-01-15T08:59:33;99342.22;;;-0.61;100.00
24486;BME280;13449;49.374;8.584;2024-01-15T09:02:00;99342.06;;;-0.58;100.00
24486;BME280;13449;49.374;8.584;2024-01-15T09:04:26;99347.09;;;-0.55;100.00
24486;BME280;13449;49.374;8.584;2024-01-15T09:06:53;99343.50;;;-0.52;100.00
24486;BME280;13449;49.374;8.584;2024-01-15T09:09:20;99336.44;;;-0.49;100.00
24486;BME280;13449;49.374;8.584;2024-01-15T09:11:49;99336.31;;;-0.46;100.00
24486;BME280;13449;49.374;8.584;2024-01-15T09:14:15;99337.91;;;-0.43;100.00
24486;BME280;13449;49.374;8.584;2024-01-15T09:16:44;99351.50;;;-0.40;100.00
24486;BME280;13449;49.374;8.584;2024-01-15T09:19:11;99352.34;;;-0.39;100.00
24486;BME280;13449;49.374;8.584;2024-01-15T09:21:38;99340.09;;;-0.36;100.00
24486;BME280;13449;49.374;8.584;2024-01-15T09:24:05;99331.41;;;-0.35;100.00
24486;BME280;13449;49.374;8.584;2024-01-15T09:26:34;99337.22;;;-0.29;100.00
24486;BME280;13449;49.374;8.584;2024-01-15T09:29:00;99336.31;;;-0.28;100.00
24486;BME280;13449;49.374;8.584;2024-01-15T09:31:29;99335.22;;;-0.24;100.00
24486;BME280;13449;49.374;8.584;2024-01-15T09:33:56;99336.91;;;-0.23;100.00
24486;BME280;13449;49.374;8.584;2024-01-15T09:36:24;99321.22;;;-0.20;100.00
24486;BME280;13449;49.374;8.584;2024-01-15T09:38:52;99325.38;;;-0.18;100.00
24486;BME280;13449;49.374;8.584;2024-01-15T09:41:19;99327.00;;;-0.15;100.00
24486;BME280;13449;49.374;8.584;2024-01-15T09:43:48;99322.59;;;-0.13;100.00
24486;BME280;13449;49.374;8.584;2024-01-15T09:46:15;99323.41;;;-0.13;100.00
24486;BME280;13449;49.374;8.584;2024-01-15T09:48:43;99329.34;;;-0.11;100.00
24486;BME280;13449;49.374;8.584;2024-01-15T09:51:09;99328.44;;;-0.10;100.00
24486;BME280;13449;49.374;8.584;2024-01-15T09:56:17;99320.75;;;-0.11;100.00
24486;BME280;13449;49.374;8.584;2024-01-15T09:58:50;99317.16;;;-0.09;100.00
24486;BME280;13449;49.374;8.584;2024-01-15T10:01:20;99311.91;;;-0.07;100.00
24486;BME280;13449;49.374;8.584;2024-01-15T10:03:47;99313.06;;;-0.13;100.00
24486;BME280;13449;49.374;8.584;2024-01-15T10:06:17;99323.59;;;-0.16;100.00
24486;BME280;13449;49.374;8.584;2024-01-15T10:09:38;99314.81;;;-0.13;100.00
24486;BME280;13449;49.374;8.584;2024-01-15T10:12:05;99313.06;;;-0.13;100.00
24486;BME280;13449;49.374;8.584;2024-01-15T10:14:31;99314.75;;;-0.12;100.00
24486;BME280;13449;49.374;8.584;2024-01-15T10:16:59;99314.56;;;-0.09;100.00
24486;BME280;13449;49.374;8.584;2024-01-15T10:19:28;99304.31;;;-0.10;100.00
24486;BME280;13449;49.374;8.584;2024-01-15T10:21:55;99306.06;;;-0.11;100.00
24486;BME280;13449;49.374;8.584;2024-01-15T10:24:22;99305.22;;;-0.11;100.00
24486;BME280;13449;49.374;8.584;2024-01-15T10:26:48;99305.53;;;-0.17;100.00
24486;BME280;13449;49.374;8.584;2024-01-15T10:29:15;99310.34;;;-0.27;100.00
24486;BME280;13449;49.374;8.584;2024-01-15T10:31:42;99307.91;;;-0.30;100.00
24486;BME280;13449;49.374;8.584;2024-01-15T10:34:10;99304.50;;;-0.31;100.00
24486;BME280;13449;49.374;8.584;2024-01-15T10:36:41;99316.97;;;-0.39;100.00
24486;BME280;13449;49.374;8.584;2024-01-15T10:39:14;99325.63;;;-0.40;100.00
24486;BME280;13449;49.374;8.584;2024-01-15T10:41:41;99324.72;;;-0.39;100.00
24486;BME280;13449;49.374;8.584;2024-01-15T10:44:08;99318.63;;;-0.38;100.00
24486;BME280;13449;49.374;8.584;2024-01-15T10:46:34;99322.53;;;-0.29;100.00
24486;BME280;13449;49.374;8.584;2024-01-15T10:49:01;99328.53;;;-0.28;100.00
24486;BME280;13449;49.374;8.584;2024-01-15T10:51:28;99328.53;;;-0.28;100.00
24486;BME280;13449;49.374;8.584;2024-01-15T10:53:59;99327.63;;;-0.27;100.00
24486;BME280;13449;49.374;8.584;2024-01-15T10:56:30;99328.38;;;-0.25;100.00
24486;BME280;13449;49.374;8.584;2024-01-15T10:58:58;99328.38;;;-0.25;100.00
24486;BME280;13449;49.374;8.584;2024-01-15T11:01:30;99330.72;;;-0.21;100.00
24486;BME280;13449;49.374;8.584;2024-01-15T11:03:57;99325.63;;;-0.22;100.00
24486;BME280;13449;49.374;8.584;2024-01-15T11:06:25;99331.41;;;-0.17;100.00
24486;BME280;13449;49.374;8.584;2024-01-15T11:08:54;99335.06;;;-0.21;100.00
24486;BME280;13449;49.374;8.584;2024-01-15T11:11:21;99336.72;;;-0.20;100.00
24486;BME280;13449;49.374;8.584;2024-01-15T11:13:49;99332.22;;;-0.17;100.00
24486;BME280;13449;49.374;8.584;2024-01-15T11:16:18;99331.41;;;-0.17;100.00
24486;BME280;13449;49.374;8.584;2024-01-15T11:21:27;99332.03;;;-0.12;100.00
24486;BME280;13449;49.374;8.584;2024-01-15T11:24:00;99322.41;;;-0.10;100.00
24486;BME280;13449;49.374;8.584;2024-01-15T11:26:34;99336.78;;;-0.05;100.00
24486;BME280;13449;49.374;8.584;2024-01-15T11:29:10;99340.38;;;-0.07;100.00
24486;BME280;13449;49.374;8.584;2024-01-15T11:34:08;99346.16;;;-0.02;100.00
24486;BME280;13449;49.374;8.584;2024-01-15T11:41:59;99361.69;;;-0.02;100.00
24486;BME280;13449;49.374;8.584;2024-01-15T11:44:26;99366.56;;;0.04;100.00
24486;BME280;13449;49.374;8.584;2024-01-15T11:52:18;99371.97;;;0.17;100.00
24486;BME280;13449;49.374;8.584;2024-01-15T11:54:59;99367.13;;;0.26;100.00
24486;BME280;13449;49.374;8.584;2024-01-15T12:00:10;99391.56;;;0.38;100.00
24486;BME280;13449;49.374;8.584;2024-01-15T12:02:42;99384.78;;;0.36;100.00
24486;BME280;13449;49.374;8.584;2024-01-15T12:05:11;99389.47;;;0.45;100.00
24486;BME280;13449;49.374;8.584;2024-01-15T12:07:40;99391.94;;;0.48;100.00
24486;BME280;13449;49.374;8.584;2024-01-15T12:10:13;99396.31;;;0.46;100.00
24486;BME280;13449;49.374;8.584;2024-01-15T12:12:54;99404.44;;;0.40;100.00
24486;BME280;13449;49.374;8.584;2024-01-15T12:15:29;99402.94;;;0.36;100.00
24486;BME280;13449;49.374;8.584;2024-01-15T12:17:59;99396.91;;;0.35;100.00
24486;BME280;13449;49.374;8.584;2024-01-15T12:20:26;99388.31;;;0.35;100.00
24486;BME280;13449;49.374;8.584;2024-01-15T12:22:53;99394.22;;;0.37;100.00
24486;BME280;13449;49.374;8.584;2024-01-15T12:25:29;99388.13;;;0.38;100.00
24486;BME280;13449;49.374;8.584;2024-01-15T12:27:58;99392.41;;;0.39;100.00
24486;BME280;13449;49.374;8.584;2024-01-15T12:30:26;99397.56;;;0.39;100.00
24486;BME280;13449;49.374;8.584;2024-01-15T12:32:54;99392.22;;;0.42;100.00
24486;BME280;13449;49.374;8.584;2024-01-15T12:35:20;99398.84;;;0.47;100.00
24486;BME280;13449;49.374;8.584;2024-01-15T12:37:48;99387.72;;;0.45;100.00
24486;BME280;13449;49.374;8.584;2024-01-15T12:40:19;99379.88;;;0.47;100.00
24486;BME280;13449;49.374;8.584;2024-01-15T12:42:46;99386.59;;;0.51;100.00
24486;BME280;13449;49.374;8.584;2024-01-15T12:45:13;99391.59;;;0.54;100.00
24486;BME280;13449;49.374;8.584;2024-01-15T12:47:40;99378.66;;;0.54;100.00
24486;BME280;13449;49.374;8.584;2024-01-15T12:50:08;99379.97;;;0.61;100.00
24486;BME280;13449;49.374;8.584;2024-01-15T12:52:45;99375.41;;;0.66;100.00
24486;BME280;13449;49.374;8.584;2024-01-15T12:55:12;99375.41;;;0.66;100.00
24486;BME280;13449;49.374;8.584;2024-01-15T12:57:38;99383.94;;;0.68;100.00
24486;BME280;13449;49.374;8.584;2024-01-15T13:00:06;99388.94;;;0.71;100.00
24486;BME280;13449;49.374;8.584;2024-01-15T13:02:42;99379.25;;;0.75;100.00
24486;BME280;13449;49.374;8.584;2024-01-15T13:05:10;99374.72;;;0.78;100.00
24486;BME280;13449;49.374;8.584;2024-01-15T13:07:39;99371.06;;;0.82;100.00
24486;BME280;13449;49.374;8.584;2024-01-15T13:10:07;99378.50;;;0.88;100.00
24486;BME280;13449;49.374;8.584;2024-01-15T13:12:37;99363.88;;;0.87;100.00
24486;BME280;13449;49.374;8.584;2024-01-15T13:15:04;99351.47;;;0.93;100.00